createdAt,value
2023-03-08T00:02:02.948Z,100.00
2023-03-08T00:04:34.288Z,100.00
2023-03-08T00:07:04.772Z,100.00
2023-03-08T00:09:35.341Z,100.00
2023-03-08T00:12:07.450Z,100.00
2023-03-08T00:14:43.108Z,100.00
2023-03-08T00:17:13.542Z,100.00
2023-03-08T00:19:44.426Z,100.00
2023-03-08T00:22:16.126Z,100.00
2023-03-08T00:24:46.635Z,100.00
2023-03-08T00:27:17.256Z,100.00
2023-03-08T00:29:50.572Z,100.00
2023-03-08T00:32:21.232Z,100.00
2023-03-08T00:34:54.684Z,100.00
2023-03-08T00:37:28.313Z,100.00
2023-03-08T00:40:00.383Z,100.00
2023-03-08T00:42:32.319Z,100.00
2023-03-08T00:45:05.520Z,100.00
2023-03-08T00:47:35.970Z,100.00
2023-03-08T00:50:06.670Z,100.00
2023-03-08T00:52:39.673Z,100.00
2023-03-08T00:55:11.110Z,100.00
2023-03-08T00:57:41.832Z,100.00
2023-03-08T01:00:17.747Z,100.00
2023-03-08T01:02:48.386Z,100.00
2023-03-08T01:05:19.108Z,100.00
2023-03-08T01:07:49.481Z,100.00
2023-03-08T01:10:20.941Z,100.00
2023-03-08T01:12:52.713Z,100.00
2023-03-08T01:15:27.612Z,100.00
2023-03-08T01:17:58.214Z,100.00
2023-03-08T01:20:28.791Z,100.00
2023-03-08T01:22:59.568Z,100.00
2023-03-08T01:25:30.446Z,100.00
2023-03-08T01:28:01.049Z,100.00
2023-03-08T01:30:34.348Z,100.00
2023-03-08T01:33:04.761Z,100.00
2023-03-08T01:35:35.213Z,100.00
2023-03-08T01:38:05.813Z,100.00
2023-03-08T01:40:36.785Z,100.00
2023-03-08T01:43:25.533Z,100.00
2023-03-08T01:46:27.907Z,100.00
2023-03-08T01:49:11.530Z,100.00
2023-03-08T01:51:47.837Z,100.00
2023-03-08T01:54:22.483Z,100.00
2023-03-08T01:56:56.523Z,100.00
2023-03-08T01:59:30.044Z,100.00
2023-03-08T02:02:04.929Z,100.00
2023-03-08T02:04:37.347Z,100.00
2023-03-08T02:07:11.253Z,100.00
2023-03-08T02:09:42.568Z,100.00
2023-03-08T02:12:16.459Z,100.00
2023-03-08T02:14:48.043Z,100.00
2023-03-08T02:17:21.975Z,100.00
2023-03-08T02:20:00.917Z,100.00
2023-03-08T02:22:31.902Z,100.00
2023-03-08T02:25:05.026Z,100.00
2023-03-08T02:27:35.610Z,100.00
2023-03-08T02:30:09.655Z,100.00
2023-03-08T02:32:46.046Z,100.00
2023-03-08T02:35:16.423Z,100.00
2023-03-08T02:37:46.826Z,100.00
2023-03-08T02:40:20.455Z,100.00
2023-03-08T02:42:53.273Z,100.00
2023-03-08T02:45:23.817Z,100.00
2023-03-08T02:47:54.439Z,100.00
2023-03-08T02:50:28.420Z,100.00
2023-03-08T02:52:59.006Z,100.00
2023-03-08T02:55:32.265Z,100.00
2023-03-08T02:58:02.848Z,100.00
2023-03-08T03:00:33.274Z,100.00
2023-03-08T03:03:04.687Z,100.00
2023-03-08T03:05:35.206Z,100.00
2023-03-08T03:08:09.575Z,100.00
2023-03-08T03:10:44.598Z,100.00
2023-03-08T03:13:16.729Z,100.00
2023-03-08T03:15:47.082Z,100.00
2023-03-08T03:18:19.125Z,100.00
2023-03-08T03:20:49.477Z,100.00
2023-03-08T03:23:19.929Z,100.00
2023-03-08T03:25:58.838Z,100.00
2023-03-08T03:28:29.321Z,100.00
2023-03-08T03:30:59.738Z,100.00
2023-03-08T03:33:30.726Z,100.00
2023-03-08T03:36:03.477Z,100.00
2023-03-08T03:38:37.408Z,100.00
2023-03-08T03:41:12.926Z,100.00
2023-03-08T03:43:45.056Z,100.00
2023-03-08T03:46:21.484Z,100.00
2023-03-08T03:49:01.320Z,100.00
2023-03-08T03:51:37.765Z,100.00
2023-03-08T03:54:17.723Z,100.00
2023-03-08T03:56:52.473Z,100.00
2023-03-08T03:59:28.532Z,100.00
2023-03-08T04:02:01.953Z,100.00
2023-03-08T04:04:44.514Z,100.00
2023-03-08T04:07:17.371Z,100.00
2023-03-08T04:09:55.046Z,100.00
2023-03-08T04:12:28.169Z,100.00
2023-03-08T04:14:59.155Z,100.00
2023-03-08T04:17:33.492Z,100.00
2023-03-08T04:20:05.269Z,100.00
2023-03-08T04:22:43.481Z,100.00
2023-03-08T04:25:24.765Z,100.00
2023-03-08T04:28:03.641Z,100.00
2023-03-08T04:30:35.381Z,100.00
2023-03-08T04:33:07.266Z,100.00
2023-03-08T04:35:48.495Z,100.00
2023-03-08T04:38:21.713Z,100.00
2023-03-08T04:41:19.906Z,100.00
2023-03-08T04:44:15.438Z,100.00
2023-03-08T04:46:50.885Z,100.00
2023-03-08T04:49:29.036Z,100.00
2023-03-08T04:52:03.938Z,100.00
2023-03-08T04:54:37.069Z,100.00
2023-03-08T04:57:32.363Z,100.00
2023-03-08T05:00:09.494Z,100.00
2023-03-08T05:02:42.355Z,100.00
2023-03-08T05:05:17.631Z,100.00
2023-03-08T05:07:48.881Z,100.00
2023-03-08T05:10:19.658Z,100.00
2023-03-08T05:12:50.135Z,100.00
2023-03-08T05:15:23.612Z,100.00
2023-03-08T05:17:54.603Z,100.00
2023-03-08T05:20:27.429Z,100.00
2023-03-08T05:22:59.530Z,100.00
2023-03-08T05:25:45.952Z,100.00
2023-03-08T05:28:17.104Z,100.00
2023-03-08T05:31:03.781Z,100.00
2023-03-08T05:33:36.185Z,100.00
2023-03-08T05:36:08.758Z,100.00
2023-03-08T05:38:39.973Z,100.00
2023-03-08T05:41:16.908Z,100.00
2023-03-08T05:43:51.117Z,100.00
2023-03-08T05:46:24.648Z,100.00
2023-03-08T05:48:56.212Z,100.00
2023-03-08T05:51:26.795Z,100.00
2023-03-08T05:53:57.651Z,100.00
2023-03-08T05:56:28.555Z,100.00
2023-03-08T05:59:12.930Z,100.00
2023-03-08T06:01:45.896Z,100.00
2023-03-08T06:04:26.868Z,100.00
2023-03-08T06:06:57.825Z,100.00
2023-03-08T06:09:33.110Z,100.00
2023-03-08T06:12:03.836Z,100.00
2023-03-08T06:14:34.386Z,100.00
2023-03-08T06:17:08.156Z,99.46
2023-03-08T06:19:43.856Z,98.70
2023-03-08T06:22:19.903Z,98.58
2023-03-08T06:24:51.010Z,98.51
2023-03-08T06:27:28.512Z,98.17
2023-03-08T06:30:02.490Z,97.98
2023-03-08T06:32:38.682Z,97.75
2023-03-08T06:35:12.393Z,97.12
2023-03-08T06:37:49.694Z,96.33
2023-03-08T06:40:20.948Z,95.44
2023-03-08T06:42:51.057Z,94.82
2023-03-08T06:45:21.557Z,95.18
2023-03-08T06:47:54.510Z,95.49
2023-03-08T06:50:24.828Z,95.21
2023-03-08T06:52:55.561Z,94.54
2023-03-08T06:55:38.517Z,94.49
2023-03-08T06:58:09.852Z,94.24
2023-03-08T07:00:39.989Z,93.53
2023-03-08T07:03:14.971Z,93.13
2023-03-08T07:05:45.436Z,93.50
2023-03-08T07:08:15.739Z,93.92
2023-03-08T07:10:46.111Z,93.71
2023-03-08T07:13:17.588Z,93.51
2023-03-08T07:15:47.934Z,93.54
2023-03-08T07:18:21.140Z,93.66
2023-03-08T07:20:56.022Z,93.60
2023-03-08T07:23:26.468Z,94.77
2023-03-08T07:25:56.956Z,94.30
2023-03-08T07:28:27.576Z,93.51
2023-03-08T07:30:57.938Z,92.63
2023-03-08T07:33:31.016Z,93.15
2023-03-08T07:36:04.460Z,93.44
2023-03-08T07:38:34.758Z,92.54
2023-03-08T07:41:05.089Z,92.77
2023-03-08T07:43:35.497Z,92.01
2023-03-08T07:46:21.253Z,92.35
2023-03-08T07:48:55.672Z,92.79
2023-03-08T07:51:26.067Z,91.28
2023-03-08T07:53:56.630Z,90.00
2023-03-08T07:56:26.958Z,90.25
2023-03-08T07:58:59.456Z,90.42
2023-03-08T08:01:30.042Z,89.16
2023-03-08T08:04:03.834Z,89.25
2023-03-08T08:06:34.226Z,88.99
2023-03-08T08:09:04.777Z,89.51
2023-03-08T08:11:35.431Z,88.75
2023-03-08T08:14:05.843Z,87.62
2023-03-08T08:16:36.678Z,86.77
2023-03-08T08:19:09.925Z,85.01
2023-03-08T08:21:40.222Z,85.59
2023-03-08T08:24:11.865Z,85.47
2023-03-08T08:26:42.991Z,85.42
2023-03-08T08:29:13.705Z,86.37
2023-03-08T08:31:44.402Z,86.34
2023-03-08T08:34:17.705Z,86.06
2023-03-08T08:36:47.951Z,85.60
2023-03-08T08:39:18.292Z,85.38
2023-03-08T08:41:48.618Z,85.89
2023-03-08T08:44:18.973Z,85.89
2023-03-08T08:46:49.356Z,85.26
2023-03-08T08:49:22.257Z,84.29
2023-03-08T08:51:53.462Z,82.91
2023-03-08T08:54:23.852Z,81.45
2023-03-08T08:56:54.278Z,80.67
2023-03-08T08:59:24.537Z,79.69
2023-03-08T09:01:54.898Z,79.18
2023-03-08T09:04:28.012Z,78.42
2023-03-08T09:06:58.439Z,78.29
2023-03-08T09:09:28.881Z,77.74
2023-03-08T09:11:59.252Z,76.97
2023-03-08T09:14:29.739Z,77.08
2023-03-08T09:17:00.157Z,76.50
2023-03-08T09:19:33.174Z,76.14
2023-03-08T09:22:03.638Z,76.31
2023-03-08T09:24:34.310Z,76.33
2023-03-08T09:27:04.908Z,75.89
2023-03-08T09:29:36.655Z,76.03
2023-03-08T09:32:08.065Z,76.54
2023-03-08T09:34:41.168Z,76.51
2023-03-08T09:37:13.484Z,76.40
2023-03-08T09:39:43.915Z,76.43
2023-03-08T09:42:24.119Z,76.75
2023-03-08T09:45:10.802Z,77.04
2023-03-08T09:47:49.327Z,77.84
2023-03-08T09:50:39.943Z,77.88
2023-03-08T09:53:24.505Z,78.25
2023-03-08T09:55:59.881Z,78.05
2023-03-08T09:58:42.887Z,77.80
2023-03-08T10:01:31.486Z,78.23
2023-03-08T10:04:17.962Z,78.37
2023-03-08T10:07:26.038Z,78.30
2023-03-08T10:10:21.592Z,78.81
2023-03-08T10:13:09.211Z,79.73
2023-03-08T10:15:46.314Z,79.75
2023-03-08T10:18:24.547Z,79.96
2023-03-08T10:20:55.442Z,81.34
2023-03-08T10:23:33.769Z,81.45
2023-03-08T10:26:08.155Z,83.26
2023-03-08T10:28:38.444Z,84.11
2023-03-08T10:31:29.069Z,84.05
2023-03-08T10:34:13.852Z,84.08
2023-03-08T10:36:55.233Z,84.19
2023-03-08T10:39:28.390Z,84.40
2023-03-08T10:42:01.112Z,84.71
2023-03-08T10:44:40.297Z,85.90
2023-03-08T10:47:25.825Z,85.71
2023-03-08T10:50:18.010Z,84.86
2023-03-08T10:52:50.930Z,85.98
2023-03-08T10:55:26.305Z,85.77
2023-03-08T10:58:00.924Z,85.31
2023-03-08T11:00:37.584Z,85.90
2023-03-08T11:03:19.033Z,86.16
2023-03-08T11:05:59.202Z,88.76
2023-03-08T11:08:33.744Z,88.96
2023-03-08T11:11:11.708Z,88.64
2023-03-08T11:13:46.623Z,87.36
2023-03-08T11:16:52.659Z,87.57
2023-03-08T11:19:36.128Z,87.84
2023-03-08T11:22:24.553Z,88.78
2023-03-08T11:25:21.732Z,90.10
2023-03-08T11:28:23.188Z,90.47
2023-03-08T11:31:07.718Z,89.79
2023-03-08T11:34:09.524Z,88.89
2023-03-08T11:36:44.598Z,90.48
2023-03-08T11:39:29.921Z,90.64
2023-03-08T11:42:12.552Z,91.24
2023-03-08T11:45:00.965Z,90.71
2023-03-08T11:48:04.637Z,90.50
2023-03-08T11:50:39.253Z,90.15
2023-03-08T11:53:21.488Z,91.30
2023-03-08T11:56:11.130Z,91.65
2023-03-08T11:58:49.168Z,91.21
2023-03-08T12:01:28.664Z,91.95
2023-03-08T12:04:04.942Z,92.19
2023-03-08T12:06:42.140Z,92.78
2023-03-08T12:09:23.193Z,92.91
2023-03-08T12:12:01.830Z,93.49
2023-03-08T12:14:36.796Z,93.96
2023-03-08T12:17:18.866Z,94.41
2023-03-08T12:19:51.514Z,94.25
2023-03-08T12:22:45.658Z,94.68
2023-03-08T12:25:26.550Z,93.89
2023-03-08T12:28:04.958Z,93.77
2023-03-08T12:30:54.842Z,93.78
2023-03-08T12:33:32.497Z,93.34
2023-03-08T12:36:05.375Z,92.83
2023-03-08T12:38:39.632Z,92.52
2023-03-08T12:41:26.802Z,91.70
2023-03-08T12:44:07.449Z,90.77
2023-03-08T12:47:02.955Z,89.38
2023-03-08T12:49:40.641Z,88.80
2023-03-08T12:52:30.471Z,89.16
2023-03-08T12:55:06.096Z,89.84
2023-03-08T12:57:43.103Z,89.33
2023-03-08T13:00:30.961Z,89.79
2023-03-08T13:03:08.872Z,90.12
2023-03-08T13:05:45.693Z,89.62
2023-03-08T13:08:35.133Z,87.95
2023-03-08T13:11:11.376Z,87.82
2023-03-08T13:13:53.624Z,87.55
2023-03-08T13:16:38.226Z,87.92
2023-03-08T13:19:25.704Z,87.38
2023-03-08T13:22:09.110Z,87.36
2023-03-08T13:24:46.201Z,87.86
2023-03-08T13:27:30.232Z,88.64
2023-03-08T13:30:10.709Z,88.64
2023-03-08T13:32:43.001Z,87.71
2023-03-08T13:35:19.284Z,86.53
2023-03-08T13:38:01.534Z,85.63
2023-03-08T13:40:33.621Z,85.27
2023-03-08T13:43:09.379Z,85.59
2023-03-08T13:45:41.727Z,85.16
2023-03-08T13:48:12.466Z,85.35
2023-03-08T13:50:47.541Z,84.60
2023-03-08T13:53:23.295Z,84.10
2023-03-08T13:55:57.090Z,83.47
2023-03-08T13:58:37.278Z,83.51
2023-03-08T14:01:15.799Z,82.98
2023-03-08T14:03:47.520Z,83.80
2023-03-08T14:06:25.171Z,83.75
2023-03-08T14:09:02.244Z,83.43
2023-03-08T14:11:36.720Z,83.74
2023-03-08T14:14:10.685Z,84.39
2023-03-08T14:16:43.923Z,84.69
2023-03-08T14:19:22.425Z,85.38
2023-03-08T14:21:55.534Z,85.15
2023-03-08T14:24:31.626Z,85.39
2023-03-08T14:27:04.432Z,85.93
2023-03-08T14:29:36.429Z,86.00
2023-03-08T14:32:25.978Z,86.20
2023-03-08T14:35:10.050Z,86.62
2023-03-08T14:37:40.434Z,86.93
2023-03-08T14:40:30.638Z,86.71
2023-03-08T14:43:04.835Z,86.28
2023-03-08T14:45:41.880Z,86.19
2023-03-08T14:48:27.735Z,86.38
2023-03-08T14:51:01.772Z,86.81
2023-03-08T14:53:35.662Z,87.02
2023-03-08T14:56:13.068Z,87.28
2023-03-08T14:58:49.294Z,87.80
2023-03-08T15:01:27.695Z,88.17
2023-03-08T15:03:58.288Z,88.59
2023-03-08T15:06:31.794Z,88.58
2023-03-08T15:09:03.936Z,89.02
2023-03-08T15:11:37.320Z,89.16
2023-03-08T15:14:08.413Z,90.08
2023-03-08T15:16:38.516Z,89.38
2023-03-08T15:19:10.801Z,89.28
2023-03-08T15:21:41.553Z,90.18
2023-03-08T15:24:18.456Z,90.56
2023-03-08T15:26:52.845Z,91.05
2023-03-08T15:29:30.234Z,91.26
2023-03-08T15:32:01.293Z,90.78
2023-03-08T15:34:31.878Z,90.58
2023-03-08T15:37:02.340Z,89.82
2023-03-08T15:39:33.039Z,89.06
2023-03-08T15:42:06.105Z,89.12
2023-03-08T15:44:36.443Z,89.55
2023-03-08T15:47:07.048Z,90.02
2023-03-08T15:49:37.492Z,90.26
2023-03-08T15:52:08.948Z,90.26
2023-03-08T15:54:40.543Z,90.49
2023-03-08T15:57:13.583Z,90.48
2023-03-08T15:59:44.583Z,91.22
2023-03-08T16:02:18.070Z,92.01
2023-03-08T16:04:49.992Z,92.65
2023-03-08T16:07:21.997Z,93.57
2023-03-08T16:09:52.405Z,93.56
2023-03-08T16:12:25.359Z,93.39
2023-03-08T16:14:57.403Z,93.87
2023-03-08T16:17:28.925Z,94.13
2023-03-08T16:19:59.330Z,94.63
2023-03-08T16:22:29.758Z,95.04
2023-03-08T16:25:00.198Z,95.25
2023-03-08T16:27:36.215Z,95.42
2023-03-08T16:30:09.370Z,95.17
2023-03-08T16:32:39.701Z,95.44
2023-03-08T16:35:11.391Z,96.12
2023-03-08T16:37:41.859Z,96.32
2023-03-08T16:40:15.680Z,96.46
2023-03-08T16:42:48.688Z,96.76
2023-03-08T16:45:19.326Z,97.31
2023-03-08T16:47:49.713Z,97.67
2023-03-08T16:50:20.733Z,97.94
2023-03-08T16:52:51.210Z,98.23
2023-03-08T16:55:21.826Z,98.47
2023-03-08T16:57:54.941Z,98.98
2023-03-08T17:00:27.306Z,99.13
2023-03-08T17:02:57.779Z,98.87
2023-03-08T17:05:28.410Z,98.73
2023-03-08T17:07:58.877Z,98.92
2023-03-08T17:10:29.336Z,99.51
2023-03-08T17:13:02.337Z,100.00
2023-03-08T17:15:32.832Z,100.00
2023-03-08T17:18:03.251Z,100.00
2023-03-08T17:20:33.902Z,100.00
2023-03-08T17:23:04.372Z,100.00
2023-03-08T17:25:39.988Z,100.00
2023-03-08T17:28:16.054Z,100.00
2023-03-08T17:30:46.542Z,100.00
2023-03-08T17:33:17.778Z,100.00
2023-03-08T17:35:48.070Z,100.00
2023-03-08T17:38:18.478Z,100.00
2023-03-08T17:40:48.997Z,100.00
2023-03-08T17:43:22.234Z,100.00
2023-03-08T17:46:00.831Z,100.00
2023-03-08T17:48:31.934Z,100.00
2023-03-08T17:51:05.417Z,100.00
2023-03-08T17:53:37.654Z,100.00
2023-03-08T17:56:10.039Z,100.00
2023-03-08T17:58:43.695Z,100.00
2023-03-08T18:01:16.806Z,100.00
2023-03-08T18:03:48.316Z,100.00
2023-03-08T18:06:25.423Z,100.00
2023-03-08T18:08:56.606Z,100.00
2023-03-08T18:11:27.647Z,100.00
2023-03-08T18:14:00.749Z,100.00
2023-03-08T18:16:32.559Z,100.00
2023-03-08T18:19:03.451Z,100.00
2023-03-08T18:21:36.372Z,100.00
2023-03-08T18:24:07.949Z,100.00
2023-03-08T18:26:38.501Z,100.00
2023-03-08T18:29:12.844Z,100.00
2023-03-08T18:31:43.700Z,100.00
2023-03-08T18:34:14.514Z,100.00
2023-03-08T18:36:45.313Z,100.00
2023-03-08T18:39:16.652Z,100.00
2023-03-08T18:41:47.073Z,100.00
2023-03-08T18:44:20.285Z,100.00
2023-03-08T18:46:50.739Z,100.00
2023-03-08T18:49:21.790Z,100.00
2023-03-08T18:51:52.224Z,100.00
2023-03-08T18:54:23.497Z,100.00
2023-03-08T18:56:54.632Z,100.00
2023-03-08T18:59:28.154Z,100.00
2023-03-08T19:01:58.708Z,100.00
2023-03-08T19:04:29.548Z,100.00
2023-03-08T19:06:59.931Z,100.00
2023-03-08T19:09:30.222Z,100.00
2023-03-08T19:12:02.446Z,100.00
2023-03-08T19:14:37.011Z,100.00
2023-03-08T19:17:07.920Z,100.00
2023-03-08T19:19:38.461Z,100.00
2023-03-08T19:22:08.990Z,100.00
2023-03-08T19:24:39.401Z,100.00
2023-03-08T19:27:10.448Z,100.00
2023-03-08T19:29:44.181Z,100.00
2023-03-08T19:32:16.796Z,100.00
2023-03-08T19:34:49.262Z,100.00
2023-03-08T19:37:19.869Z,100.00
2023-03-08T19:39:51.633Z,100.00
2023-03-08T19:42:24.742Z,100.00
2023-03-08T19:44:57.756Z,100.00
2023-03-08T19:47:28.426Z,100.00
2023-03-08T19:49:58.900Z,100.00
2023-03-08T19:52:29.259Z,100.00
2023-03-08T19:54:59.734Z,100.00
2023-03-08T19:57:30.463Z,100.00
2023-03-08T20:00:04.266Z,100.00
2023-03-08T20:02:45.846Z,100.00
2023-03-08T20:05:18.704Z,100.00
2023-03-08T20:07:49.260Z,100.00
2023-03-08T20:10:20.717Z,100.00
2023-03-08T20:12:52.730Z,100.00
2023-03-08T20:15:28.110Z,100.00
2023-03-08T20:17:58.587Z,100.00
2023-03-08T20:20:30.961Z,100.00
2023-03-08T20:23:01.386Z,100.00
2023-03-08T20:25:32.083Z,100.00
2023-03-08T20:28:02.783Z,100.00
2023-03-08T20:30:37.055Z,100.00
2023-03-08T20:33:07.793Z,100.00
2023-03-08T20:35:38.282Z,100.00
2023-03-08T20:38:08.876Z,100.00
2023-03-08T20:40:39.862Z,100.00
2023-03-08T20:43:11.164Z,100.00
2023-03-08T20:45:44.491Z,100.00
2023-03-08T20:48:14.918Z,100.00
2023-03-08T20:50:45.415Z,100.00
2023-03-08T20:53:15.926Z,100.00
2023-03-08T20:55:46.367Z,100.00
2023-03-08T20:58:16.694Z,100.00
2023-03-08T21:00:49.862Z,100.00
2023-03-08T21:03:20.683Z,100.00
2023-03-08T21:05:51.077Z,100.00
2023-03-08T21:08:24.445Z,100.00
2023-03-08T21:10:54.726Z,100.00
2023-03-08T21:13:25.029Z,100.00
2023-03-08T21:16:04.173Z,100.00
2023-03-08T21:18:34.735Z,100.00
2023-03-08T21:21:05.294Z,100.00
2023-03-08T21:23:36.123Z,100.00
2023-03-08T21:26:06.523Z,100.00
2023-03-08T21:28:36.929Z,100.00
2023-03-08T21:31:17.622Z,100.00
2023-03-08T21:33:48.220Z,100.00
2023-03-08T21:36:19.194Z,100.00
2023-03-08T21:38:54.973Z,100.00
2023-03-08T21:41:28.656Z,100.00
2023-03-08T21:44:00.565Z,100.00
2023-03-08T21:46:33.715Z,100.00
2023-03-08T21:49:04.257Z,100.00
2023-03-08T21:51:37.105Z,100.00
2023-03-08T21:54:07.897Z,100.00
2023-03-08T21:56:38.458Z,100.00
2023-03-08T21:59:09.310Z,100.00
2023-03-08T22:01:45.740Z,100.00
2023-03-08T22:04:16.464Z,100.00
2023-03-08T22:06:47.204Z,100.00
2023-03-08T22:09:17.687Z,100.00
2023-03-08T22:11:48.162Z,100.00
2023-03-08T22:14:18.689Z,100.00
2023-03-08T22:16:53.269Z,100.00
2023-03-08T22:19:23.579Z,100.00
2023-03-08T22:21:54.022Z,100.00
2023-03-08T22:24:24.487Z,100.00
2023-03-08T22:26:54.807Z,100.00
2023-03-08T22:29:25.147Z,100.00
2023-03-08T22:31:58.094Z,100.00
2023-03-08T22:34:28.611Z,100.00
2023-03-08T22:37:00.578Z,100.00
2023-03-08T22:39:31.056Z,100.00
2023-03-08T22:42:01.470Z,100.00
2023-03-08T22:44:31.866Z,100.00
2023-03-08T22:47:04.852Z,100.00
2023-03-08T22:49:35.233Z,100.00
2023-03-08T22:52:09.697Z,100.00
2023-03-08T22:54:39.977Z,100.00
2023-03-08T22:57:10.440Z,100.00
2023-03-08T22:59:40.917Z,100.00
2023-03-08T23:02:14.556Z,100.00
2023-03-08T23:04:44.968Z,100.00
2023-03-08T23:07:15.350Z,100.00
2023-03-08T23:09:45.713Z,100.00
2023-03-08T23:12:16.371Z,100.00
2023-03-08T23:14:46.850Z,100.00
2023-03-08T23:17:20.028Z,100.00
2023-03-08T23:19:55.690Z,100.00
2023-03-08T23:22:27.447Z,100.00
2023-03-08T23:24:57.758Z,100.00
2023-03-08T23:27:28.132Z,100.00
2023-03-08T23:29:58.611Z,100.00
2023-03-08T23:32:31.952Z,100.00
2023-03-08T23:35:02.398Z,100.00
2023-03-08T23:37:32.830Z,100.00
2023-03-08T23:40:07.564Z,100.00
2023-03-08T23:42:37.977Z,100.00
2023-03-08T23:45:11.051Z,100.00
2023-03-08T23:47:44.107Z,100.00
2023-03-08T23:50:15.278Z,100.00
2023-03-08T23:52:45.782Z,100.00
2023-03-08T23:55:16.849Z,100.00
2023-03-08T23:57:47.399Z,100.00
